NCAR-RAP Real-Time Weather Data

Output produced by METARs form (23 June 2018  19:31 UTC)
found at http://weather.rap.ucar.edu/surface/
 
RJOB 231200Z VRB01KT 9000 FEW007 BKN050 19/18 Q1006
RJOB 231100Z 09004KT 9000 FEW007 BKN060 19/18 Q1005
RJOB 231000Z 11002KT 7000 FEW007 SCT010 BKN050 20/18 Q1005
RJOB 230900Z 12004KT 070V140 7000 FEW005 SCT030 BKN040 20/18 Q1005
RJOB 230800Z 13003KT 090V180 7000 FEW005 SCT007 BKN015 20/19 Q1005
RJOB 230700Z 14006KT 110V170 9000 FEW010 SCT020 BKN030 22/18 Q1004
RJOB 230600Z 17004KT 120V210 9999 FEW015 BKN025 BKN120 23/17 Q1004
RJOB 230500Z VRB02KT 9999 FEW010 SCT015 BKN150 23/18 Q1004
RJOB 230400Z VRB03KT 7000 -RA FEW005 SCT010 BKN100 21/19 Q1004
RJOB 230300Z VRB02KT 8000 -RA FEW010 SCT100 BKN120 21/18 Q1005
RJOB 230200Z 30003KT 250V340 9999 -RA FEW015 SCT070 BKN090 21/18 Q1005
RJOB 230100Z VRB02KT 9999 -RA FEW015 SCT080 BKN100 21/17 Q1005
RJOB 230000Z 36006KT 320V040 9999 FEW007 SCT080 BKN120 21/17 Q1005
RJOB 222300Z 06005KT 9999 -RA PRFG FEW000 SCT060 BKN100 19/17 Q1005
RJOB 222200Z 05009KT 8000 -RA PRFG FEW000 SCT060 BKN100 19/18 Q1005
RJOB 222115Z VRB02KT 8000 -RA FEW020 SCT060 BKN120 19/18 Q1007 RMK 1CU020 3SC060 6AC120 A2974
RJOB 221200Z VRB01KT 9999 FEW025 BKN/// 23/16 Q1009
RJOB 221100Z 10003KT 9999 FEW030 BKN/// 23/15 Q1009
RJOB 221000Z 11003KT 9999 FEW030 BKN/// 24/14 Q1009
RJOB 220900Z 13004KT 060V160 9999 FEW030 BKN/// 25/14 Q1009
RJOB 220800Z 16005KT 130V220 9999 FEW035 BKN/// 27/15 Q1008
RJOB 220700Z 16004KT 130V210 9999 FEW035 BKN/// 28/14 Q1008
RJOB 220600Z VRB02KT 9999 FEW035 BKN/// 28/13 Q1008
RJOB 220500Z VRB03KT 9999 FEW030 BKN/// 27/14 Q1008
RJOB 220400Z 29003KT 190V360 9999 FEW025 BKN/// 26/14 Q1009
RJOB 220300Z 16004KT 110V220 9999 FEW020 BKN/// 25/18 Q1010
RJOB 220200Z VRB02KT 9999 FEW015 BKN/// 24/18 Q1011
RJOB 220100Z 12003KT 360V160 9999 FEW015 BKN/// 22/16 Q1011
RJOB 220000Z VRB01KT 9999 FEW008 BKN/// 21/16 Q1010
RJOB 212300Z VRB01KT 9999 FEW008 BKN/// 19/16 Q1011
RJOB 212200Z 06003KT 9999 FEW008 BKN/// 17/15 Q1010
RJOB 212115Z 00000KT 9999 FEW005 BKN/// 17/16 Q1010 RMK 1ST005 A2984
RJOB 211200Z 33005KT 9999 FEW025 BKN/// 22/18 Q1008
RJOB 211100Z 29003KT 9999 FEW025 BKN/// 22/18 Q1007
RJOB 211000Z 25003KT 200V280 9999 FEW025 SCT050 BKN/// 23/18 Q1007
RJOB 210900Z 21006KT 180V240 9999 FEW025 BKN/// 24/17 Q1006
RJOB 210800Z 22008KT 160V240 9999 FEW025 BKN045 25/19 Q1005